Time;durP1;ratioP1;P1;durP2;ratioP2;P2;SDS_P1;SDS_P2;PMS_P1;PMS_P2;Temp;Humidity;BMP_temperature;BMP_pressure;BME280_temperature;BME280_humidity;BME280_pressure;Samples;Min_cycle;Max_cycle;Signal;HPM_P1;HPM_P2
2022/05/07 00:02:07;;;;;;;17.87;13.13;;;;;;;21.55;56.38;99184.29;1789116;80;25924;-88
2022/05/07 00:04:36;;;;;;;17.02;13.83;;;;;;;21.56;56.33;99189.28;1789136;80;25732;-88
2022/05/07 00:07:04;;;;;;;17.82;12.45;;;;;;;21.53;56.37;99190.82;1788366;79;25624;-88
2022/05/07 00:09:30;;;;;;;17.95;12.78;;;;;;;21.53;56.35;99190.03;1789156;79;25453;-87
2022/05/07 00:11:56;;;;;;;18.12;12.98;;;;;;;21.53;56.38;99188.64;1789129;80;27535;-88
2022/05/07 00:14:22;;;;;;;19.37;13.20;;;;;;;21.52;56.35;99187.83;1789140;80;25824;-88
2022/05/07 00:19:32;;;;;;;17.07;13.70;;;;;;;21.51;56.37;99189.59;1788855;80;25442;-88
2022/05/07 00:21:58;;;;;;;16.15;12.25;;;;;;;21.50;56.35;99187.38;1789357;80;25624;-88
2022/05/07 00:24:25;;;;;;;18.25;13.75;;;;;;;21.50;56.37;99184.59;1789144;80;27517;-88
2022/05/07 00:26:51;;;;;;;19.30;13.40;;;;;;;21.49;56.35;99189.97;1789276;79;25583;-87
2022/05/07 00:29:17;;;;;;;18.07;14.00;;;;;;;21.49;56.36;99194.73;1789266;80;25427;-88
2022/05/07 00:31:43;;;;;;;17.75;13.45;;;;;;;21.47;56.37;99190.92;1789299;80;25573;-88
2022/05/07 00:34:09;;;;;;;18.32;13.43;;;;;;;21.47;56.36;99200.68;1789324;80;25396;-88
2022/05/07 00:36:35;;;;;;;17.37;12.80;;;;;;;21.47;56.36;99188.13;1789225;80;27306;-88
2022/05/07 00:39:01;;;;;;;16.77;13.20;;;;;;;21.47;56.36;99193.71;1789180;80;25561;-88
2022/05/07 00:41:27;;;;;;;19.80;13.75;;;;;;;21.47;56.35;99197.11;1789331;80;25473;-88
2022/05/07 00:43:53;;;;;;;17.70;13.05;;;;;;;21.47;56.35;99190.14;1789146;80;26250;-88
2022/05/07 00:46:23;;;;;;;17.57;13.75;;;;;;;21.47;56.31;99193.71;1789464;80;25417;-88
2022/05/07 00:48:49;;;;;;;18.10;13.28;;;;;;;21.46;56.33;99193.50;1789415;80;26745;-88
2022/05/07 00:51:33;;;;;;;17.20;12.88;;;;;;;21.47;56.32;99193.71;1789241;80;25683;-88
2022/05/07 00:54:06;;;;;;;18.25;13.25;;;;;;;21.44;56.34;99192.48;1788915;80;25683;-88
2022/05/07 00:56:33;;;;;;;18.15;13.22;;;;;;;21.44;56.34;99189.70;1775806;80;25641;-88
2022/05/07 00:59:00;;;;;;;16.97;13.15;;;;;;;21.44;56.33;99188.88;1772603;80;25647;-88
2022/05/07 01:01:27;;;;;;;15.95;12.35;;;;;;;21.42;56.33;99179.50;1772598;80;27583;-87
2022/05/07 01:03:54;;;;;;;16.15;12.93;;;;;;;21.43;56.32;99181.12;1772433;80;25691;-88
2022/05/07 01:06:21;;;;;;;18.25;13.15;;;;;;;21.42;56.28;99178.11;1772559;80;25671;-88
2022/05/07 01:08:49;;;;;;;16.12;12.80;;;;;;;21.39;56.34;99173.28;1772504;81;26183;-88
2022/05/07 01:11:17;;;;;;;17.25;13.83;;;;;;;21.39;56.34;99173.89;1772626;80;25659;-88
2022/05/07 01:13:45;;;;;;;16.90;12.93;;;;;;;21.38;56.36;99172.26;1772538;80;27292;-88
2022/05/07 01:16:12;;;;;;;17.12;12.85;;;;;;;21.39;56.35;99180.25;1772652;81;25724;-88
2022/05/07 01:18:40;;;;;;;16.95;13.45;;;;;;;21.38;56.31;99173.08;1772333;81;25437;-88
2022/05/07 01:21:15;;;;;;;18.65;13.40;;;;;;;21.38;56.33;99176.44;1772476;80;25578;-87
2022/05/07 01:23:43;;;;;;;17.10;12.95;;;;;;;21.41;56.29;99184.05;1772313;80;25735;-88
2022/05/07 01:26:10;;;;;;;17.67;13.03;;;;;;;21.38;56.32;99184.80;1772333;80;28303;-88
2022/05/07 01:28:38;;;;;;;17.92;12.80;;;;;;;21.40;56.29;99182.45;1772504;80;25715;-88
2022/05/07 01:31:05;;;;;;;18.30;12.70;;;;;;;21.39;56.28;99178.86;1772571;80;25604;-88
2022/05/07 01:33:33;;;;;;;16.42;13.13;;;;;;;21.37;56.30;99180.42;1772534;80;25423;-88
2022/05/07 01:36:07;;;;;;;16.52;12.90;;;;;;;21.34;56.32;99174.20;1772666;81;25671;-88
2022/05/07 01:38:32;;;;;;;16.90;12.73;;;;;;;21.34;56.32;99178.37;1772302;80;26906;-88
2022/05/07 01:40:59;;;;;;;15.45;12.15;;;;;;;21.34;56.32;99176.41;1772555;80;25639;-88
2022/05/07 01:43:27;;;;;;;17.20;12.70;;;;;;;21.34;56.34;99179.19;1772319;80;25470;-88
2022/05/07 01:45:55;;;;;;;17.80;13.03;;;;;;;21.34;56.31;99176.98;1772470;81;25604;-88
2022/05/07 01:48:22;;;;;;;17.45;12.60;;;;;;;21.32;56.32;99170.39;1772777;81;25582;-88
2022/05/07 01:50:48;;;;;;;16.70;12.90;;;;;;;21.33;56.31;99171.20;1772862;81;27405;-88
2022/05/07 01:53:14;;;;;;;16.07;12.58;;;;;;;21.33;56.29;99169.81;1772673;81;25856;-88
2022/05/07 01:55:41;;;;;;;18.07;12.95;;;;;;;21.33;56.29;99169.23;1772515;80;25451;-88
2022/05/07 01:58:07;;;;;;;15.23;12.85;;;;;;;21.30;56.28;99169.37;1772763;80;25644;-88
2022/05/07 02:00:34;;;;;;;16.90;13.53;;;;;;;21.31;56.30;99172.97;1772830;80;25463;-88
2022/05/07 02:03:01;;;;;;;17.42;13.03;;;;;;;21.30;56.31;99171.38;1772418;80;26785;-88
2022/05/07 02:05:29;;;;;;;15.63;12.58;;;;;;;21.31;56.28;99173.78;1772569;80;25723;-88
2022/05/07 02:07:56;;;;;;;16.32;13.00;;;;;;;21.30;56.28;99169.98;1772643;81;25418;-88
2022/05/07 02:10:23;;;;;;;16.90;12.70;;;;;;;21.29;56.31;99169.74;1772698;80;25411;-88
2022/05/07 02:12:50;;;;;;;15.80;12.85;;;;;;;21.28;56.29;99172.33;1772701;80;25617;-88
2022/05/07 02:15:16;;;;;;;17.15;13.05;;;;;;;21.28;56.28;99169.53;1772587;80;27372;-88
2022/05/07 02:17:42;;;;;;;16.52;12.98;;;;;;;21.26;56.32;99172.70;1772617;80;25490;-88
2022/05/07 02:20:09;;;;;;;17.50;13.15;;;;;;;21.26;56.32;99169.91;1772733;80;25684;-88
2022/05/07 02:22:35;;;;;;;17.02;13.60;;;;;;;21.28;56.29;99169.53;1772756;80;25423;-88
2022/05/07 02:25:02;;;;;;;16.97;13.08;;;;;;;21.29;56.28;99178.11;1772779;80;25427;-88
2022/05/07 02:27:28;;;;;;;17.20;12.75;;;;;;;21.28;56.27;99165.36;1772758;80;27352;-88
2022/05/07 02:29:54;;;;;;;16.57;12.03;;;;;;;21.28;56.24;99157.81;1772650;81;25710;-88
2022/05/07 02:32:20;;;;;;;17.30;13.38;;;;;;;21.27;56.26;99162.36;1772679;80;25422;-88
2022/05/07 02:34:46;;;;;;;16.32;12.80;;;;;;;21.27;56.25;99165.16;1772610;80;26183;-88
2022/05/07 02:37:12;;;;;;;18.17;12.93;;;;;;;21.25;56.30;99167.50;1772696;80;25597;-88
2022/05/07 02:39:39;;;;;;;16.25;12.90;;;;;;;21.25;56.30;99166.11;1772624;81;27409;-88
2022/05/07 02:44:50;;;;;;;16.67;12.63;;;;;;;21.26;56.25;99165.73;1772284;81;25608;-88
2022/05/07 02:47:16;;;;;;;16.40;12.98;;;;;;;21.26;56.25;99171.88;1772663;80;25589;-88
2022/05/07 02:49:42;;;;;;;16.00;12.10;;;;;;;21.25;56.24;99179.46;1772786;80;25207;-88
2022/05/07 02:52:08;;;;;;;17.95;13.15;;;;;;;21.24;56.25;99182.02;1772679;79;26881;-88
2022/05/07 02:54:34;;;;;;;15.95;12.33;;;;;;;21.22;56.27;99182.18;1772581;80;25422;-88
2022/05/07 02:57:00;;;;;;;15.25;12.35;;;;;;;21.21;56.30;99181.97;1772417;80;25613;-88
2022/05/07 02:59:26;;;;;;;15.28;12.37;;;;;;;21.22;56.28;99173.81;1772662;81;25605;-88
2022/05/07 03:01:52;;;;;;;16.73;12.78;;;;;;;21.22;56.27;99178.81;1772781;81;25452;-88
2022/05/07 03:04:19;;;;;;;15.95;12.40;;;;;;;21.20;56.27;99171.41;1772747;81;27415;-88
2022/05/07 03:06:45;;;;;;;15.68;12.20;;;;;;;21.19;56.27;99181.73;1772260;81;25697;-88
2022/05/07 03:09:11;;;;;;;16.23;12.53;;;;;;;21.21;56.27;99179.19;1772589;81;25430;-89
2022/05/07 03:11:37;;;;;;;15.45;12.47;;;;;;;21.19;56.28;99181.73;1772809;81;25460;-88
2022/05/07 03:14:05;;;;;;;16.25;12.05;;;;;;;21.19;56.30;99180.34;1772649;81;25427;-88
2022/05/07 03:16:31;;;;;;;15.98;12.33;;;;;;;21.19;56.28;99180.34;1772378;80;27449;-89
2022/05/07 03:18:57;;;;;;;16.07;12.75;;;;;;;21.19;56.29;99180.34;1772557;80;25865;-89
2022/05/07 03:21:23;;;;;;;15.72;12.35;;;;;;;21.19;56.24;99176.77;1772627;81;25601;-89
2022/05/07 03:23:49;;;;;;;15.38;12.33;;;;;;;21.17;56.27;99176.33;1772684;81;25444;-89
2022/05/07 03:26:17;;;;;;;15.10;12.37;;;;;;;21.17;56.27;99172.97;1772577;80;25466;-89
2022/05/07 03:28:43;;;;;;;15.85;12.70;;;;;;;21.16;56.27;99174.12;1772486;80;27396;-89
2022/05/07 03:31:09;;;;;;;15.60;12.47;;;;;;;21.18;56.27;99175.14;1772537;81;25820;-89
2022/05/07 03:33:35;;;;;;;16.65;12.65;;;;;;;21.16;56.25;99175.52;1772654;79;25680;-89
2022/05/07 03:36:01;;;;;;;16.27;12.70;;;;;;;21.18;56.25;99175.14;1772687;81;26266;-89
2022/05/07 03:38:26;;;;;;;15.65;12.37;;;;;;;21.18;56.25;99177.93;1773210;80;25440;-89
2022/05/07 03:40:55;;;;;;;15.18;12.15;;;;;;;21.18;56.24;99177.35;1772649;81;27437;-89
2022/05/07 03:43:24;;;;;;;18.48;12.73;;;;;;;21.16;56.22;99174.12;1772200;81;25415;-89
2022/05/07 03:45:58;;;;;;;16.05;12.37;;;;;;;21.16;56.22;99179.70;1772421;80;25667;-89
2022/05/07 03:48:28;;;;;;;15.45;12.37;;;;;;;21.18;56.21;99181.53;1772422;80;25572;-89
2022/05/07 03:50:58;;;;;;;17.00;12.87;;;;;;;21.16;56.21;99173.34;1772629;80;25679;-89
2022/05/07 03:53:31;;;;;;;16.85;12.45;;;;;;;21.14;56.26;99183.46;1772348;81;27631;-88
2022/05/07 03:56:03;;;;;;;16.48;12.00;;;;;;;21.14;56.25;99184.86;1774889;79;25411;-89
2022/05/07 03:58:33;;;;;;;17.70;12.45;;;;;;;21.15;56.24;99184.25;1787857;79;25642;-89
2022/05/07 04:01:03;;;;;;;16.07;12.33;;;;;;;21.14;56.24;99190.43;1789271;80;25548;-89
2022/05/07 04:03:33;;;;;;;14.78;11.65;;;;;;;21.14;56.25;99192.41;1789422;80;25615;-89
2022/05/07 04:06:07;;;;;;;16.65;11.93;;;;;;;21.13;56.25;99191.59;1789216;80;27060;-89
2022/05/07 04:08:33;;;;;;;16.62;12.60;;;;;;;21.13;56.26;99192.98;1789094;80;25631;-89
2022/05/07 04:10:59;;;;;;;16.85;12.53;;;;;;;21.13;56.23;99199.16;1789331;80;25702;-89
2022/05/07 04:13:25;;;;;;;15.93;11.97;;;;;;;21.12;56.23;99202.53;1789097;79;26144;-89
2022/05/07 04:15:51;;;;;;;16.70;12.50;;;;;;;21.12;56.26;99196.14;1789299;80;25502;-89
2022/05/07 04:18:16;;;;;;;15.90;12.33;;;;;;;21.11;56.23;99195.93;1789273;79;27353;-89
2022/05/07 04:20:43;;;;;;;15.98;11.65;;;;;;;21.11;56.25;99198.72;1789082;80;25473;-89
2022/05/07 04:23:10;;;;;;;17.05;12.37;;;;;;;21.11;56.24;99195.93;1788898;80;25603;-89
2022/05/07 04:25:37;;;;;;;16.67;12.07;;;;;;;21.10;56.30;99197.12;1789116;80;25443;-89
2022/05/07 04:28:03;;;;;;;16.97;12.60;;;;;;;21.09;56.29;99200.48;1788875;80;25645;-89
2022/05/07 04:30:29;;;;;;;16.42;12.10;;;;;;;21.10;56.29;99198.52;1789241;79;27401;-89
2022/05/07 04:32:56;;;;;;;16.10;12.53;;;;;;;21.09;56.27;99201.06;1789271;80;25643;-89
2022/05/07 04:35:22;;;;;;;16.07;12.80;;;;;;;21.10;56.29;99202.69;1788797;80;25659;-89
2022/05/07 04:37:49;;;;;;;16.42;12.63;;;;;;;21.10;56.28;99195.12;1788844;80;25700;-89
2022/05/07 04:40:15;;;;;;;16.05;12.43;;;;;;;21.09;56.30;99194.09;1789194;80;25634;-89
2022/05/07 04:42:41;;;;;;;16.50;12.75;;;;;;;21.09;56.30;99199.09;1795792;79;27392;-89
2022/05/07 04:45:08;;;;;;;16.50;12.55;;;;;;;21.09;56.26;99203.27;1788840;80;25911;-88
2022/05/07 04:47:34;;;;;;;16.12;12.47;;;;;;;21.10;56.29;99204.08;1789119;79;25433;-89
2022/05/07 04:50:00;;;;;;;15.25;12.15;;;;;;;21.09;56.27;99198.27;1789399;80;25963;-89
2022/05/07 04:52:26;;;;;;;15.80;12.25;;;;;;;21.11;56.27;99203.71;1788927;80;25484;-89
2022/05/07 04:54:53;;;;;;;15.55;12.33;;;;;;;21.10;56.28;99209.05;1787189;80;28206;-89
2022/05/07 04:57:20;;;;;;;15.30;12.23;;;;;;;21.09;56.26;99203.27;1773043;79;25392;-88
2022/05/07 04:59:46;;;;;;;16.55;12.37;;;;;;;21.10;56.29;99206.88;1769203;81;25687;-89
2022/05/07 05:02:12;;;;;;;15.38;12.50;;;;;;;21.09;56.30;99203.84;1765479;80;26417;-89
2022/05/07 05:04:38;;;;;;;16.95;12.82;;;;;;;21.09;56.29;99206.05;1765682;81;25670;-89
2022/05/07 05:07:04;;;;;;;16.45;12.55;;;;;;;21.12;56.26;99210.07;1769808;80;27383;-88
2022/05/07 05:09:30;;;;;;;16.62;12.37;;;;;;;21.11;56.24;99209.86;1770242;81;25518;-88
2022/05/07 05:11:56;;;;;;;15.20;12.23;;;;;;;21.10;56.25;99210.44;1769509;81;25669;-88
2022/05/07 05:17:06;;;;;;;16.85;12.55;;;;;;;21.09;56.25;99219.98;1767622;81;25586;-88
2022/05/07 05:19:32;;;;;;;17.12;12.73;;;;;;;21.10;56.28;99223.59;1769551;81;27402;-88
2022/05/07 05:21:58;;;;;;;16.10;12.28;;;;;;;21.08;56.27;99217.00;1770518;80;25442;-89
2022/05/07 05:24:25;;;;;;;15.45;12.15;;;;;;;21.08;56.31;99223.14;1771328;80;25440;-88
2022/05/07 05:26:52;;;;;;;15.32;11.90;;;;;;;21.09;56.31;99226.95;1769816;80;26017;-88
2022/05/07 05:29:18;;;;;;;14.28;11.80;;;;;;;21.09;56.29;99228.34;1769222;81;25410;-88
2022/05/07 05:31:44;;;;;;;16.70;12.55;;;;;;;21.10;56.30;99232.73;1772407;80;28219;-88
2022/05/07 05:34:11;;;;;;;15.50;12.00;;;;;;;21.09;56.29;99233.11;1772578;80;25591;-88
2022/05/07 05:36:37;;;;;;;15.55;12.28;;;;;;;21.09;56.31;99228.92;1773180;81;25398;-88
2022/05/07 05:39:05;;;;;;;16.80;12.53;;;;;;;21.10;56.31;99227.16;1772482;81;25677;-88
2022/05/07 05:41:30;;;;;;;15.38;12.43;;;;;;;21.09;56.30;99230.32;1772454;80;25465;-88
2022/05/07 05:43:56;;;;;;;15.30;11.60;;;;;;;21.08;56.32;99233.72;1772786;81;27356;-88
2022/05/07 05:46:23;;;;;;;16.48;12.75;;;;;;;21.08;56.36;99233.72;1772763;80;25777;-88
2022/05/07 05:48:49;;;;;;;15.53;11.57;;;;;;;21.09;56.36;99234.50;1772965;81;25640;-88
2022/05/07 05:51:14;;;;;;;15.28;11.70;;;;;;;21.09;56.37;99234.50;1771639;80;26388;-88
2022/05/07 05:53:40;;;;;;;17.82;12.45;;;;;;;21.09;56.38;99234.50;1770864;81;25362;-88
2022/05/07 05:56:06;;;;;;;21.40;13.88;;;;;;;21.09;56.45;99239.49;1772755;80;27434;-88
2022/05/07 05:58:35;;;;;;;17.98;13.10;;;;;;;21.11;56.47;99243.30;1747666;80;25869;-88
2022/05/07 06:01:03;;;;;;;17.35;12.68;;;;;;;21.12;56.49;99242.12;1745889;82;25641;-88
2022/05/07 06:03:30;;;;;;;17.60;12.85;;;;;;;21.10;56.51;99243.88;1746465;82;25663;-88
2022/05/07 06:05:56;;;;;;;16.60;12.45;;;;;;;21.07;56.46;99247.41;1746539;82;25673;-88
2022/05/07 06:08:22;;;;;;;18.95;12.90;;;;;;;21.04;56.71;99249.57;1746613;82;28001;-88
2022/05/07 06:10:54;;;;;;;18.27;12.55;;;;;;;21.01;56.74;99241.95;1746409;82;25627;-88
2022/05/07 06:13:19;;;;;;;17.40;12.58;;;;;;;21.00;56.75;99243.92;1746309;82;25670;-88
2022/05/07 06:15:51;;;;;;;18.10;12.45;;;;;;;21.03;56.81;99246.55;1746637;82;26422;-89
2022/05/07 06:18:13;;;;;;;22.15;13.25;;;;;;;21.03;56.89;99250.15;1745311;82;25479;-88
2022/05/07 06:20:39;;;;;;;17.85;12.47;;;;;;;21.03;56.95;99248.76;1746523;82;28205;-88
2022/05/07 06:23:05;;;;;;;16.12;12.35;;;;;;;21.05;56.94;99255.35;1746383;82;25671;-88
2022/05/07 06:28:16;;;;;;;21.65;13.35;;;;;;;21.04;57.10;99253.75;1746126;82;25735;-88
2022/05/07 06:30:42;;;;;;;18.27;12.88;;;;;;;21.05;57.23;99260.92;1746472;82;25416;-88
2022/05/07 06:33:08;;;;;;;21.82;13.72;;;;;;;21.08;57.25;99256.58;1746491;82;28175;-88
2022/05/07 06:35:34;;;;;;;18.32;13.72;;;;;;;21.08;57.54;99260.77;1746407;82;25675;-88
2022/05/07 06:38:00;;;;;;;22.52;14.75;;;;;;;21.08;57.68;99257.98;1746613;82;25501;-88
2022/05/07 06:40:27;;;;;;;19.90;14.07;;;;;;;21.09;57.74;99260.39;1746169;82;25683;-88
2022/05/07 06:42:55;;;;;;;18.92;14.70;;;;;;;21.10;57.81;99256.42;1746185;82;25476;-87
2022/05/07 06:45:21;;;;;;;22.35;14.73;;;;;;;21.12;57.92;99260.23;1746221;82;26877;-87
2022/05/07 06:47:48;;;;;;;21.07;14.75;;;;;;;21.12;57.98;99259.66;1746470;82;25608;-88
2022/05/07 06:50:14;;;;;;;20.12;14.98;;;;;;;21.13;57.98;99261.25;1746210;82;25706;-87
2022/05/07 06:52:46;;;;;;;18.90;15.03;;;;;;;21.15;58.06;99262.27;1743256;82;25799;-88
2022/05/07 06:55:17;;;;;;;19.17;14.65;;;;;;;21.15;58.07;99266.45;1745890;82;25414;-88
2022/05/07 06:57:44;;;;;;;24.10;15.13;;;;;;;21.15;58.07;99260.30;1766744;79;27448;-87
2022/05/07 07:00:14;;;;;;;21.77;14.80;;;;;;;21.17;58.06;99266.33;1789085;80;25421;-88
2022/05/07 07:02:42;;;;;;;23.05;14.35;;;;;;;21.16;58.13;99267.48;1789415;80;25437;-88
2022/05/07 07:05:09;;;;;;;19.62;14.73;;;;;;;21.19;58.00;99258.98;1788916;79;25747;-90
2022/05/07 07:07:36;;;;;;;19.82;14.73;;;;;;;21.23;58.12;99268.78;1788940;80;25403;-89
2022/05/07 07:10:02;;;;;;;20.17;15.20;;;;;;;21.22;58.09;99268.58;1789166;80;27332;-90
2022/05/07 07:12:29;;;;;;;21.20;14.78;;;;;;;21.21;58.08;99269.16;1789108;80;25592;-89
2022/05/07 07:14:55;;;;;;;20.30;14.40;;;;;;;21.22;58.08;99268.58;1788873;80;25457;-89
2022/05/07 07:17:23;;;;;;;19.35;15.00;;;;;;;21.21;58.08;99280.91;1789112;79;25673;-89
2022/05/07 07:19:49;;;;;;;19.02;14.23;;;;;;;21.22;58.07;99276.36;1789018;80;25618;-89
2022/05/07 07:22:15;;;;;;;20.35;14.63;;;;;;;21.23;57.98;99280.75;1789162;80;27435;-89
2022/05/07 07:24:41;;;;;;;18.62;14.00;;;;;;;21.26;57.99;99273.62;1789152;79;25844;-90
2022/05/07 07:27:08;;;;;;;19.50;14.15;;;;;;;21.27;57.96;99282.22;1789259;80;25445;-89
2022/05/07 07:29:35;;;;;;;19.65;14.25;;;;;;;21.26;57.99;99281.40;1788924;80;25781;-88
2022/05/07 07:32:01;;;;;;;21.07;14.55;;;;;;;21.26;57.96;99282.80;1789363;80;25635;-91
2022/05/07 07:34:27;;;;;;;21.02;14.13;;;;;;;21.26;57.96;99279.19;1789251;79;27391;-89
2022/05/07 07:36:53;;;;;;;17.50;14.18;;;;;;;21.26;58.02;99278.61;1789303;80;25465;-89
2022/05/07 07:39:20;;;;;;;20.20;14.05;;;;;;;21.28;57.90;99274.88;1789119;80;25599;-89
2022/05/07 07:41:46;;;;;;;18.90;13.43;;;;;;;21.29;57.93;99279.27;1788916;80;25936;-89
2022/05/07 07:44:13;;;;;;;17.62;13.78;;;;;;;21.31;57.93;99280.28;1789145;80;25576;-89
2022/05/07 07:49:24;;;;;;;18.95;13.32;;;;;;;21.31;58.00;99278.89;1788751;80;25700;-88
2022/05/07 07:51:50;;;;;;;21.30;13.38;;;;;;;21.31;57.98;99281.10;1789118;80;25425;-88
2022/05/07 07:54:16;;;;;;;19.75;14.10;;;;;;;21.31;57.89;99281.10;1789076;80;25678;-89
2022/05/07 07:56:43;;;;;;;19.70;13.38;;;;;;;21.31;57.75;99288.65;1789321;79;25579;-88
2022/05/07 07:59:10;;;;;;;19.65;13.55;;;;;;;21.30;57.78;99278.69;1748551;80;27331;-88
2022/05/07 08:01:37;;;;;;;18.70;13.85;;;;;;;21.29;57.65;99277.87;1746328;82;25437;-88
2022/05/07 08:04:06;;;;;;;22.17;14.18;;;;;;;21.29;57.64;99280.66;1743155;82;25678;-89
2022/05/07 08:06:33;;;;;;;23.15;14.07;;;;;;;21.30;57.65;99284.26;1746455;82;25831;-88
2022/05/07 08:11:46;;;;;;;21.82;13.22;;;;;;;21.30;57.74;99282.86;1746207;82;25564;-89
2022/05/07 08:14:13;;;;;;;18.98;13.70;;;;;;;21.30;57.76;99283.66;1745892;82;25717;-89
2022/05/07 08:16:44;;;;;;;25.55;13.90;;;;;;;21.30;57.80;99289.23;1746437;82;25482;-89
2022/05/07 08:19:12;;;;;;;18.50;13.93;;;;;;;21.28;57.83;99287.42;1746775;82;25787;-89
2022/05/07 08:21:39;;;;;;;21.17;13.60;;;;;;;21.28;57.83;99287.42;1746123;82;25460;-89
2022/05/07 08:24:06;;;;;;;22.73;13.40;;;;;;;21.29;57.74;99293.78;1746574;82;27355;-89
2022/05/07 08:26:33;;;;;;;30.62;13.48;;;;;;;21.30;57.61;99292.63;1746606;82;25421;-89
2022/05/07 08:28:59;;;;;;;23.98;14.35;;;;;;;21.31;57.04;99292.25;1746507;82;25642;-89
2022/05/07 08:31:26;;;;;;;25.90;15.08;;;;;;;21.29;56.78;99295.98;1746420;82;26466;-90
2022/05/07 08:33:54;;;;;;;22.48;14.30;;;;;;;21.29;56.54;99298.77;1746194;82;25397;-90
2022/05/07 08:36:21;;;;;;;23.35;14.15;;;;;;;21.29;56.54;99299.36;1746044;82;27389;-91
2022/05/07 08:38:47;;;;;;;25.32;14.20;;;;;;;21.31;56.57;99298.41;1746467;82;25645;-90
2022/05/07 08:41:13;;;;;;;28.05;13.48;;;;;;;21.30;56.83;99300.98;1746499;82;25698;-90
2022/05/07 08:43:43;;;;;;;20.57;12.88;;;;;;;21.30;57.19;99300.98;1746338;82;25786;-90
2022/05/07 08:46:16;;;;;;;18.37;12.37;;;;;;;21.29;57.24;99303.53;1746639;82;25467;-91
2022/05/07 08:48:51;;;;;;;21.20;12.33;;;;;;;21.29;57.41;99304.34;1746343;82;28246;-90
2022/05/07 08:51:17;;;;;;;21.07;12.20;;;;;;;21.32;57.56;99304.19;1744209;82;29975;-92
2022/05/07 08:53:49;;;;;;;16.82;11.83;;;;;;;21.35;57.79;99306.81;1746453;82;25606;-91
2022/05/07 08:56:14;;;;;;;21.95;11.97;;;;;;;21.38;58.03;99309.67;1745842;82;25660;-90
2022/05/07 08:58:49;;;;;;;20.23;12.47;;;;;;;21.39;57.99;99314.06;1771148;79;25430;-90
2022/05/07 09:01:16;;;;;;;20.32;13.35;;;;;;;21.38;57.57;99308.86;1786659;80;27431;-89
2022/05/07 09:03:45;;;;;;;25.00;13.68;;;;;;;21.34;56.88;99312.99;1786429;79;25819;-89
2022/05/07 09:06:19;;;;;;;20.52;12.70;;;;;;;21.29;56.40;99310.50;1786581;80;25624;-90
2022/05/07 09:08:48;;;;;;;18.20;12.43;;;;;;;21.29;56.14;99320.26;1786170;79;25686;-89
2022/05/07 09:11:17;;;;;;;18.25;12.90;;;;;;;21.28;55.84;99316.69;1786627;79;25628;-89
2022/05/07 09:13:43;;;;;;;18.95;12.58;;;;;;;21.27;55.91;99322.02;1786633;80;28127;-89
2022/05/07 09:16:10;;;;;;;18.55;12.45;;;;;;;21.28;55.65;99325.63;1786510;79;25830;-89
2022/05/07 09:18:36;;;;;;;17.25;11.25;;;;;;;21.26;54.99;99326.57;1786689;80;25473;-89
2022/05/07 09:21:24;;;;;;;18.23;11.65;;;;;;;21.21;54.41;99325.50;1786233;80;25734;-89
2022/05/07 09:24:00;;;;;;;17.75;11.25;;;;;;;21.16;54.08;99324.61;1785967;80;25572;-89
2022/05/07 09:26:30;;;;;;;17.37;10.98;;;;;;;21.15;53.41;99328.58;1786343;80;28297;-89
2022/05/07 09:28:58;;;;;;;18.17;10.03;;;;;;;21.12;52.94;99328.50;1787022;80;28010;-90
2022/05/07 09:31:29;;;;;;;18.32;12.00;;;;;;;21.09;52.58;99325.88;1786661;79;25580;-90
2022/05/07 09:35:47;;;;;;;21.70;12.90;;;;;;;21.07;52.63;99322.64;1786616;80;25615;-93
2022/05/07 09:36:25;;;;;;;18.62;13.25;;;;;;;21.06;52.65;99325.22;1786203;79;25499;-91
2022/05/07 09:38:59;;;;;;;20.85;11.63;;;;;;;21.03;52.67;99325.38;1786769;80;27334;-91
2022/05/07 09:41:26;;;;;;;18.37;11.73;;;;;;;20.99;52.02;99318.94;1786172;80;25445;-90
2022/05/07 09:43:55;;;;;;;19.05;10.93;;;;;;;20.98;51.76;99322.09;1786689;80;25674;-91
2022/05/07 09:46:22;;;;;;;16.67;10.18;;;;;;;20.96;51.62;99325.25;1786405;80;25457;-92
2022/05/07 09:48:49;;;;;;;18.02;10.63;;;;;;;20.95;51.65;99325.61;1786598;80;26283;-91
2022/05/07 09:51:19;;;;;;;18.07;10.53;;;;;;;20.95;51.64;99320.05;1786189;80;27402;-90
2022/05/07 09:59:17;;;;;;;15.85;9.95;;;;;;;20.99;51.16;99319.52;1775762;79;25604;-91
2022/05/07 10:02:04;;;;;;;16.20;10.08;;;;;;;20.95;51.27;99314.47;1772713;81;25444;-94
2022/05/07 10:04:59;;;;;;;16.32;10.18;;;;;;;20.95;51.31;99307.50;1769079;80;27453;-91
2022/05/07 10:08:04;;;;;;;15.30;10.30;;;;;;;20.96;51.41;99312.71;1772627;80;25702;-93
2022/05/07 10:10:35;;;;;;;16.55;10.48;;;;;;;20.99;51.50;99312.55;1772392;79;25520;-93
2022/05/07 10:13:06;;;;;;;16.82;10.88;;;;;;;20.97;51.66;99310.71;1772229;80;25798;-94
2022/05/07 10:15:32;;;;;;;;;;;;;;;20.97;51.82;99312.92;1775000;80;25568;-92
2022/05/07 10:18:07;;;;;;;17.02;9.55;;;;;;;20.96;51.86;99311.89;1772766;81;27360;-93
2022/05/07 10:20:48;;;;;;;14.85;10.72;;;;;;;20.93;51.70;99307.27;1772395;81;25450;-92
2022/05/07 10:23:32;;;;;;;15.25;10.82;;;;;;;20.94;51.76;99306.69;1772644;80;25564;-89
2022/05/07 10:26:01;;;;;;;15.63;11.22;;;;;;;20.93;51.93;99305.88;1772512;81;25906;-88
2022/05/07 10:28:40;;;;;;;17.48;10.88;;;;;;;20.95;52.12;99304.11;1772874;80;25580;-89
2022/05/07 10:31:18;;;;;;;14.10;10.05;;;;;;;20.96;51.96;99304.35;1772374;80;27398;-91
2022/05/07 10:33:45;;;;;;;15.30;10.28;;;;;;;20.98;51.85;99297.02;1772089;80;27143;-91
2022/05/07 10:36:12;;;;;;;14.65;11.22;;;;;;;20.99;51.90;99295.84;1772659;80;25604;-90
2022/05/07 10:38:42;;;;;;;13.95;10.05;;;;;;;20.99;52.03;99295.84;1772677;80;25908;-91
2022/05/07 10:41:22;;;;;;;13.58;10.58;;;;;;;21.00;51.86;99295.47;1772563;80;25406;-90
2022/05/07 10:44:00;;;;;;;14.43;10.40;;;;;;;21.00;52.12;99292.68;1772560;81;27484;-88
2022/05/07 10:46:31;;;;;;;13.30;10.03;;;;;;;21.04;52.23;99293.55;1772070;80;25686;-90
2022/05/07 10:49:04;;;;;;;13.95;10.10;;;;;;;21.03;51.89;99296.12;1768488;80;25667;-89
2022/05/07 10:51:37;;;;;;;15.03;10.20;;;;;;;21.04;52.31;99290.76;1772351;80;25729;-90
2022/05/07 10:54:24;;;;;;;14.73;10.20;;;;;;;21.06;52.33;99292.59;1772687;80;25420;-89
2022/05/07 10:56:59;;;;;;;14.30;10.18;;;;;;;21.06;52.52;99287.02;1772340;80;28340;-89
2022/05/07 10:59:27;;;;;;;13.45;10.25;;;;;;;21.10;52.77;99289.08;1772245;80;25701;-89
2022/05/07 11:02:11;;;;;;;15.68;10.35;;;;;;;21.11;52.88;99282.31;1772614;80;25692;-91
2022/05/07 11:04:43;;;;;;;13.30;9.83;;;;;;;21.12;52.93;99283.34;1772271;80;25420;-90
2022/05/07 11:07:10;;;;;;;14.43;9.80;;;;;;;21.15;53.04;99283.99;1772344;80;25638;-92
2022/05/07 11:09:41;;;;;;;14.15;10.30;;;;;;;21.15;53.18;99279.81;1772426;79;27438;-92
2022/05/07 11:12:06;;;;;;;15.70;10.00;;;;;;;21.16;53.33;99277.23;1769073;79;25724;-89
2022/05/07 11:14:37;;;;;;;14.13;9.58;;;;;;;21.16;53.38;99276.45;1772831;81;25569;-92
2022/05/07 11:17:04;;;;;;;14.15;9.18;;;;;;;21.19;53.45;99277.09;1772317;79;25726;-90
2022/05/07 11:19:34;;;;;;;13.90;9.75;;;;;;;21.20;53.51;99271.73;1772702;81;25455;-91
2022/05/07 11:22:08;;;;;;;12.93;9.45;;;;;;;21.21;54.05;99265.58;1771963;80;27534;-92
2022/05/07 11:24:34;;;;;;;16.42;10.72;;;;;;;21.22;54.35;99274.97;1772020;81;25755;-90
2022/05/07 11:27:06;;;;;;;16.73;10.60;;;;;;;21.25;54.58;99270.05;1772674;80;25516;-91
2022/05/07 11:29:34;;;;;;;15.98;10.65;;;;;;;21.25;54.87;99260.29;1772482;80;25679;-93
2022/05/07 11:32:09;;;;;;;15.13;9.63;;;;;;;21.27;55.21;99264.09;1772768;81;25615;-93
2022/05/07 11:34:40;;;;;;;17.45;10.72;;;;;;;21.27;55.42;99265.49;1772281;79;28400;-93
2022/05/07 11:37:14;;;;;;;17.02;10.95;;;;;;;21.27;55.94;99266.27;1772414;81;25949;-91
2022/05/07 11:39:57;;;;;;;14.90;10.88;;;;;;;21.26;55.54;99259.10;1772628;80;25604;-92
2022/05/07 11:42:41;;;;;;;15.58;11.30;;;;;;;21.26;55.19;99254.10;1772575;80;25681;-93
2022/05/07 11:45:26;;;;;;;17.90;11.43;;;;;;;21.26;55.17;99259.68;1772397;81;25641;-89